createdAt,value
2022-07-30T00:02:32.797Z,16.90
2022-07-30T00:08:34.549Z,17.00
2022-07-30T00:14:36.547Z,17.00
2022-07-30T00:20:40.261Z,17.00
2022-07-30T00:26:44.502Z,17.00
2022-07-30T00:32:46.238Z,17.00
2022-07-30T00:38:48.055Z,17.00
2022-07-30T00:44:50.007Z,17.00
2022-07-30T00:50:51.807Z,17.10
2022-07-30T00:56:54.069Z,16.90
2022-07-30T01:02:56.046Z,16.90
2022-07-30T01:08:57.929Z,16.90
2022-07-30T01:15:01.421Z,16.90
2022-07-30T01:21:09.439Z,16.90
2022-07-30T01:27:15.710Z,16.90
2022-07-30T01:33:21.793Z,16.90
2022-07-30T01:39:25.540Z,17.00
2022-07-30T01:45:31.028Z,17.00
2022-07-30T01:51:39.167Z,16.90
2022-07-30T01:57:41.572Z,16.70
2022-07-30T02:03:43.421Z,16.80
2022-07-30T02:10:04.921Z,16.80
2022-07-30T02:16:13.558Z,16.80
2022-07-30T02:22:18.492Z,16.90
2022-07-30T02:28:23.180Z,16.90
2022-07-30T02:34:25.221Z,16.80
2022-07-30T02:40:28.460Z,16.80
2022-07-30T02:46:32.379Z,16.80
2022-07-30T02:52:35.611Z,16.70
2022-07-30T02:58:39.294Z,16.70
2022-07-30T03:04:42.878Z,16.80
2022-07-30T03:10:45.835Z,16.80
2022-07-30T03:16:54.163Z,16.70
2022-07-30T03:22:58.395Z,16.60
2022-07-30T03:29:01.290Z,16.50
2022-07-30T03:35:06.359Z,16.40
2022-07-30T03:41:11.527Z,16.30
2022-07-30T03:47:15.490Z,16.30
2022-07-30T03:53:17.540Z,16.30
2022-07-30T03:59:19.372Z,16.40
2022-07-30T04:05:21.975Z,16.40
2022-07-30T04:11:41.437Z,16.40
2022-07-30T04:17:49.100Z,16.40
2022-07-30T04:24:01.922Z,16.40
2022-07-30T04:30:07.605Z,16.30
2022-07-30T04:36:11.165Z,16.40
2022-07-30T04:42:14.600Z,16.40
2022-07-30T04:48:16.375Z,16.40
2022-07-30T04:54:20.460Z,16.30
2022-07-30T05:00:22.167Z,16.20
2022-07-30T05:06:25.109Z,16.30
2022-07-30T05:12:40.147Z,16.40
2022-07-30T05:18:42.228Z,16.50
2022-07-30T05:24:43.932Z,16.50
2022-07-30T05:30:45.664Z,16.50
2022-07-30T05:36:48.600Z,16.30
2022-07-30T05:42:50.346Z,16.50
2022-07-30T05:48:52.458Z,16.50
2022-07-30T05:54:54.250Z,16.50
2022-07-30T06:00:55.984Z,16.50
2022-07-30T06:06:57.879Z,16.60
2022-07-30T06:12:59.836Z,16.60
2022-07-30T06:19:01.611Z,16.60
2022-07-30T06:25:03.440Z,16.60
2022-07-30T06:31:05.785Z,16.60
2022-07-30T06:37:07.561Z,16.70
2022-07-30T06:43:09.269Z,16.70
2022-07-30T06:49:11.023Z,16.80
2022-07-30T06:55:14.082Z,16.90
2022-07-30T07:01:15.877Z,16.80
2022-07-30T07:07:31.731Z,16.80
2022-07-30T07:13:39.528Z,17.10
2022-07-30T07:20:00.315Z,17.00
2022-07-30T07:26:03.614Z,17.20
2022-07-30T07:32:08.049Z,17.30
2022-07-30T07:38:10.059Z,17.30
2022-07-30T07:44:11.772Z,17.30
2022-07-30T07:50:16.043Z,17.40
2022-07-30T07:56:17.881Z,17.50
2022-07-30T08:02:19.934Z,17.60
2022-07-30T08:08:21.723Z,17.70
2022-07-30T08:14:23.493Z,17.90
2022-07-30T08:20:25.298Z,18.10
2022-07-30T08:26:27.120Z,18.50
2022-07-30T08:32:28.910Z,18.80
2022-07-30T08:38:30.758Z,19.00
2022-07-30T08:44:33.725Z,19.20
2022-07-30T08:50:36.394Z,19.10
2022-07-30T08:56:38.408Z,19.20
2022-07-30T09:02:40.161Z,19.50
2022-07-30T09:08:42.471Z,19.60
2022-07-30T09:15:03.974Z,19.60
2022-07-30T09:21:37.927Z,19.40
2022-07-30T09:27:49.454Z,19.60
2022-07-30T09:33:51.616Z,19.70
2022-07-30T09:39:58.891Z,19.90
2022-07-30T09:46:01.701Z,20.10
2022-07-30T09:52:03.581Z,20.10
2022-07-30T09:58:08.419Z,20.40
2022-07-30T10:04:10.173Z,20.70
2022-07-30T10:10:13.142Z,21.10
2022-07-30T10:16:19.355Z,21.40
2022-07-30T10:22:21.167Z,21.70
2022-07-30T10:28:24.880Z,21.80
2022-07-30T10:34:29.348Z,22.10
2022-07-30T10:40:46.204Z,22.20
2022-07-30T10:47:06.981Z,22.40
2022-07-30T10:53:10.063Z,22.50
2022-07-30T10:59:13.065Z,22.70
2022-07-30T11:05:44.018Z,22.60
2022-07-30T11:12:05.429Z,22.60
2022-07-30T11:18:12.524Z,22.80
2022-07-30T11:24:46.526Z,22.60
2022-07-30T11:30:49.584Z,22.80
2022-07-30T11:37:19.246Z,22.70
2022-07-30T11:43:35.522Z,23.10
2022-07-30T11:49:38.299Z,22.80
2022-07-30T11:55:42.629Z,22.60
2022-07-30T12:01:48.932Z,22.20
2022-07-30T12:07:50.814Z,22.30
2022-07-30T12:13:59.506Z,22.40
2022-07-30T12:20:01.531Z,22.90
2022-07-30T12:26:04.232Z,23.20
2022-07-30T12:32:06.129Z,23.60
2022-07-30T12:38:07.928Z,23.60
2022-07-30T12:44:10.125Z,23.30
2022-07-30T12:50:21.363Z,22.90
2022-07-30T12:56:27.716Z,23.00
2022-07-30T13:02:36.281Z,23.20
2022-07-30T13:08:53.880Z,23.10
2022-07-30T13:14:55.580Z,23.50
2022-07-30T13:20:58.355Z,23.90
2022-07-30T13:27:00.053Z,24.00
2022-07-30T13:33:01.775Z,23.70
2022-07-30T13:39:03.808Z,23.50
2022-07-30T13:45:06.200Z,23.40
2022-07-30T13:51:08.118Z,23.20
2022-07-30T13:57:09.931Z,23.10
2022-07-30T14:03:12.711Z,23.90
2022-07-30T14:09:15.051Z,23.80
2022-07-30T14:15:18.008Z,23.90
2022-07-30T14:21:19.854Z,23.70
2022-07-30T14:27:21.640Z,23.40
2022-07-30T14:33:24.325Z,23.20
2022-07-30T14:39:26.133Z,23.10
2022-07-30T14:45:28.721Z,23.10
2022-07-30T14:51:34.522Z,23.20
2022-07-30T14:57:36.786Z,23.50
2022-07-30T15:03:38.771Z,23.50
2022-07-30T15:09:40.507Z,23.90
2022-07-30T15:15:42.288Z,23.80
2022-07-30T15:21:47.691Z,23.50
2022-07-30T15:27:49.585Z,23.40
2022-07-30T15:33:51.330Z,23.10
2022-07-30T15:39:55.389Z,23.00
2022-07-30T15:45:57.399Z,23.00
2022-07-30T15:51:59.924Z,23.00
2022-07-30T15:58:01.854Z,23.00
2022-07-30T16:04:03.999Z,23.00
2022-07-30T16:10:06.608Z,22.90
2022-07-30T16:16:08.625Z,22.90
2022-07-30T16:22:10.578Z,22.90
2022-07-30T16:28:12.598Z,22.80
2022-07-30T16:34:14.639Z,22.80
2022-07-30T16:40:16.805Z,22.80
2022-07-30T16:46:18.967Z,22.80
2022-07-30T16:52:21.196Z,22.70
2022-07-30T16:58:30.934Z,23.00
2022-07-30T17:04:34.740Z,23.00
2022-07-30T17:10:36.471Z,23.20
2022-07-30T17:16:38.235Z,23.30
2022-07-30T17:22:43.103Z,23.20
2022-07-30T17:28:44.946Z,23.00
2022-07-30T17:34:48.671Z,22.80
2022-07-30T17:40:50.502Z,22.80
2022-07-30T17:46:52.355Z,23.00
2022-07-30T17:52:54.110Z,23.30
2022-07-30T17:58:55.780Z,23.90
2022-07-30T18:04:57.515Z,24.00
2022-07-30T18:10:59.481Z,23.60
2022-07-30T18:17:02.613Z,23.30
2022-07-30T18:23:09.409Z,23.00
2022-07-30T18:29:14.001Z,22.90
2022-07-30T18:35:16.160Z,22.80
2022-07-30T18:41:18.984Z,22.70
2022-07-30T18:47:20.668Z,22.50
2022-07-30T18:53:22.474Z,22.50
2022-07-30T18:59:24.166Z,22.20
2022-07-30T19:05:26.314Z,22.00
2022-07-30T19:11:28.153Z,21.90
2022-07-30T19:17:45.402Z,21.80
2022-07-30T19:23:48.393Z,21.70
2022-07-30T19:29:51.109Z,21.60
2022-07-30T19:35:52.790Z,21.60
2022-07-30T19:41:54.666Z,21.50
2022-07-30T19:47:56.545Z,21.30
2022-07-30T19:53:58.632Z,21.20
2022-07-30T20:00:04.067Z,21.10
2022-07-30T20:06:07.697Z,20.90
2022-07-30T20:12:09.523Z,20.90
2022-07-30T20:18:11.557Z,20.90
2022-07-30T20:24:14.706Z,20.80
2022-07-30T20:30:17.311Z,20.80
2022-07-30T20:36:27.415Z,20.80
2022-07-30T20:42:30.103Z,20.70
2022-07-30T20:48:34.961Z,20.80
2022-07-30T20:54:38.059Z,20.80
2022-07-30T21:00:49.565Z,20.80
2022-07-30T21:06:52.488Z,20.70
2022-07-30T21:12:58.756Z,20.60
2022-07-30T21:19:10.477Z,20.50
2022-07-30T21:25:12.222Z,20.40
2022-07-30T21:31:14.346Z,20.10
2022-07-30T21:37:16.195Z,20.10
2022-07-30T21:43:17.904Z,20.00
2022-07-30T21:49:31.750Z,19.90
2022-07-30T21:55:53.072Z,19.60
2022-07-30T22:01:55.857Z,19.60
2022-07-30T22:07:57.619Z,19.60
2022-07-30T22:13:59.342Z,19.80
2022-07-30T22:20:03.344Z,19.70
2022-07-30T22:26:05.196Z,19.70
2022-07-30T22:32:08.592Z,19.80
2022-07-30T22:38:12.081Z,19.80
2022-07-30T22:44:13.920Z,19.70
2022-07-30T22:50:15.678Z,19.70
2022-07-30T22:56:23.925Z,19.70
2022-07-30T23:02:25.993Z,19.60
2022-07-30T23:08:30.913Z,19.60
2022-07-30T23:14:32.783Z,19.50
2022-07-30T23:20:34.505Z,19.40
2022-07-30T23:26:36.466Z,19.40
2022-07-30T23:32:42.548Z,19.30
2022-07-30T23:38:46.264Z,19.30
2022-07-30T23:44:47.969Z,19.30
2022-07-30T23:50:49.911Z,19.40
2022-07-30T23:56:55.989Z,19.20
